Terminal Aerodrome Forecast
Issued by NWS Melbourne, FL

Home | Current Version | Previous Version | Text Only | Print | Product List | Glossary On
Versions: 1 2 3 4 5 6 7 8 9 10 11 12 13 14
000
FTUS42 KMLB 212300
TAFMLB
TAF
KMLB 212330Z 2200/2224 15005KT P6SM BKN050 OVC150
     FM220800 16005KT P6SM VCSH SCT010 BKN025 OVC150
     FM221500 17010KT P6SM VCSH SCT030 BKN050 BKN100=

USA.gov is the U.S. government's official web portal to all federal, state and local government web resources and services.